Time;durP1;ratioP1;P1;durP2;ratioP2;P2;SDS_P1;SDS_P2;PMS_P1;PMS_P2;Temp;Humidity;BMP_temperature;BMP_pressure;BME280_temperature;BME280_humidity;BME280_pressure;Samples;Min_cycle;Max_cycle;Signal;HPM_P1;HPM_P2
2023/02/04 00:00:56;;;;;;;14.57;10.60;;;;;20.40;101968.00;;;;2103089;28;20215;-53
2023/02/04 00:01:57;;;;;;;18.43;11.73;;;;;20.40;101968.00;;;;2102661;28;20222;-53
2023/02/04 00:02:57;;;;;;;16.03;11.00;;;;;20.50;101971.00;;;;2094078;28;20250;-50
2023/02/04 00:03:57;;;;;;;18.20;11.20;;;;;20.50;101970.00;;;;2093610;28;20257;-52
2023/02/04 00:04:58;;;;;;;20.30;11.93;;;;;20.40;101968.00;;;;2102692;28;20213;-52
2023/02/04 00:05:58;;;;;;;20.00;10.90;;;;;20.40;101971.00;;;;2102991;28;20212;-52
2023/02/04 00:06:58;;;;;;;15.63;10.57;;;;;20.40;101969.00;;;;2103068;28;20211;-53
2023/02/04 00:07:59;;;;;;;16.67;10.60;;;;;20.50;101971.00;;;;2102002;28;20238;-53
2023/02/04 00:08:59;;;;;;;14.70;10.40;;;;;20.50;101965.00;;;;2102655;28;20208;-53
2023/02/04 00:09:59;;;;;;;13.60;9.67;;;;;20.40;101970.00;;;;2093408;28;20260;-52
2023/02/04 00:11:00;;;;;;;14.23;9.93;;;;;20.40;101975.00;;;;2093665;28;20258;-52
2023/02/04 00:12:00;;;;;;;13.40;10.03;;;;;20.40;101978.00;;;;2102693;28;20204;-52
2023/02/04 00:13:01;;;;;;;12.27;9.33;;;;;20.40;101977.00;;;;2103013;28;20230;-52
2023/02/04 00:14:01;;;;;;;14.33;9.80;;;;;20.40;101973.00;;;;2103067;28;20796;-52
2023/02/04 00:15:02;;;;;;;13.37;8.40;;;;;20.40;101976.00;;;;2102681;28;20219;-51
2023/02/04 00:16:02;;;;;;;14.47;9.10;;;;;20.40;101977.00;;;;2102923;28;20645;-50
2023/02/04 00:17:03;;;;;;;17.03;8.50;;;;;20.40;101975.00;;;;2103009;28;20239;-52
2023/02/04 00:18:04;;;;;;;14.53;9.80;;;;;20.40;101970.00;;;;2102012;28;20218;-50
2023/02/04 00:19:04;;;;;;;14.68;9.25;;;;;20.40;101976.00;;;;2102584;28;20219;-51
2023/02/04 00:20:05;;;;;;;12.57;8.77;;;;;20.40;101974.00;;;;2102629;28;20683;-52
2023/02/04 00:21:05;;;;;;;14.60;8.30;;;;;20.40;101983.00;;;;2102774;28;20690;-52
2023/02/04 00:22:06;;;;;;;16.33;9.00;;;;;20.40;101977.00;;;;2102833;28;20235;-53
2023/02/04 00:23:07;;;;;;;15.60;9.38;;;;;20.40;101977.00;;;;2102934;28;20207;-52
2023/02/04 00:24:07;;;;;;;12.50;8.00;;;;;20.40;101982.00;;;;2102620;28;20210;-53
2023/02/04 00:25:07;;;;;;;13.70;7.90;;;;;20.30;101996.00;;;;2101354;28;20215;-52
2023/02/04 00:26:08;;;;;;;13.00;9.37;;;;;20.30;101981.00;;;;2102736;28;20222;-52
2023/02/04 00:27:08;;;;;;;10.87;7.60;;;;;20.40;101988.00;;;;2102589;28;20263;-52
2023/02/04 00:28:08;;;;;;;12.03;8.60;;;;;20.40;101998.00;;;;2101460;28;20213;-53
2023/02/04 00:29:09;;;;;;;11.70;7.50;;;;;20.40;101999.00;;;;2102735;28;20204;-51
2023/02/04 00:30:09;;;;;;;10.70;7.50;;;;;20.40;101994.00;;;;2102818;28;20288;-51
2023/02/04 00:31:10;;;;;;;11.90;7.63;;;;;20.40;101995.00;;;;2102446;28;20236;-52
2023/02/04 00:32:10;;;;;;;12.97;8.70;;;;;20.30;102003.00;;;;2102843;28;20821;-53
2023/02/04 00:33:10;;;;;;;13.80;7.90;;;;;20.30;101996.00;;;;2102967;28;20238;-52
2023/02/04 00:34:11;;;;;;;12.93;8.50;;;;;20.30;101998.00;;;;2102845;28;20219;-52
2023/02/04 00:35:12;;;;;;;12.00;7.20;;;;;20.30;101999.00;;;;2102555;28;20215;-53
2023/02/04 00:36:12;;;;;;;14.20;8.00;;;;;20.30;101994.00;;;;2102952;28;20988;-52
2023/02/04 00:37:12;;;;;;;12.57;7.40;;;;;20.30;101996.00;;;;2102808;28;20211;-52
2023/02/04 00:38:13;;;;;;;11.07;6.70;;;;;20.30;102000.00;;;;2101879;28;20208;-52
2023/02/04 00:39:13;;;;;;;10.83;6.97;;;;;20.30;101998.00;;;;2102642;28;20219;-52
2023/02/04 00:40:13;;;;;;;12.17;7.00;;;;;20.30;101997.00;;;;2103568;28;20272;-51
2023/02/04 00:41:14;;;;;;;10.80;7.00;;;;;20.30;101997.00;;;;2104519;28;20220;-52
2023/02/04 00:42:14;;;;;;;10.43;6.87;;;;;20.30;101995.00;;;;2104191;28;20261;-53
2023/02/04 00:43:14;;;;;;;10.13;6.63;;;;;20.30;101999.00;;;;2104002;28;20218;-53
2023/02/04 00:44:15;;;;;;;11.23;7.77;;;;;20.30;101999.00;;;;2104400;28;20207;-53
2023/02/04 00:45:15;;;;;;;9.27;6.50;;;;;20.30;101988.00;;;;2104374;28;20214;-53
2023/02/04 00:46:15;;;;;;;10.17;6.40;;;;;20.30;101991.00;;;;2104509;28;20242;-52
2023/02/04 00:47:16;;;;;;;9.93;6.37;;;;;20.30;101989.00;;;;2104262;28;20218;-50
2023/02/04 00:48:16;;;;;;;10.53;5.60;;;;;20.30;101988.00;;;;2103020;28;20212;-52
2023/02/04 00:49:16;;;;;;;11.63;6.30;;;;;20.30;101996.00;;;;2103906;28;20212;-51
2023/02/04 00:50:17;;;;;;;9.10;6.33;;;;;20.30;101995.00;;;;2104274;28;20271;-52
2023/02/04 00:51:17;;;;;;;12.97;6.43;;;;;20.20;101991.00;;;;2104174;28;20207;-52
2023/02/04 00:52:17;;;;;;;10.47;6.57;;;;;20.20;101998.00;;;;2103336;28;20211;-52
2023/02/04 00:53:18;;;;;;;13.03;7.17;;;;;20.30;101994.00;;;;2103689;28;20210;-52
2023/02/04 00:54:18;;;;;;;9.10;6.00;;;;;20.30;101992.00;;;;2103739;28;20203;-51
2023/02/04 00:55:18;;;;;;;11.47;6.03;;;;;20.30;101992.00;;;;2104069;28;20213;-50
2023/02/04 00:56:19;;;;;;;12.60;6.67;;;;;20.30;101996.00;;;;2103808;28;20212;-51
2023/02/04 00:57:19;;;;;;;10.03;6.93;;;;;20.20;101986.00;;;;2103796;28;20262;-52
2023/02/04 00:58:19;;;;;;;10.10;5.53;;;;;20.20;101989.00;;;;2102354;28;20204;-52
2023/02/04 00:59:20;;;;;;;8.70;5.77;;;;;20.20;101993.00;;;;2103812;28;20341;-53
2023/02/04 01:00:20;;;;;;;11.17;6.33;;;;;20.20;101999.00;;;;2102885;28;20256;-52
2023/02/04 01:01:20;;;;;;;13.13;6.67;;;;;20.20;101994.00;;;;2090009;28;20216;-52
2023/02/04 01:02:20;;;;;;;9.70;5.40;;;;;20.20;102000.00;;;;2094839;28;20216;-51
2023/02/04 01:03:21;;;;;;;11.30;6.07;;;;;20.20;102004.00;;;;2098197;28;20231;-53
2023/02/04 01:04:22;;;;;;;12.90;6.30;;;;;20.20;102008.00;;;;2103237;28;20272;-51
2023/02/04 01:05:22;;;;;;;10.48;5.53;;;;;20.20;102007.00;;;;2103877;28;20215;-52
2023/02/04 01:06:22;;;;;;;8.53;5.53;;;;;20.20;102001.00;;;;2103694;28;20268;-52
2023/02/04 01:07:23;;;;;;;9.10;5.20;;;;;20.20;102012.00;;;;2103694;28;20223;-51
2023/02/04 01:08:23;;;;;;;10.50;6.00;;;;;20.20;102010.00;;;;2102532;28;20222;-51
2023/02/04 01:09:23;;;;;;;8.50;5.43;;;;;20.20;102009.00;;;;2102982;28;20295;-52
2023/02/04 01:10:24;;;;;;;11.80;6.03;;;;;20.20;102010.00;;;;2103452;28;20223;-52
2023/02/04 01:11:24;;;;;;;10.50;5.50;;;;;20.20;102011.00;;;;2103550;28;20212;-53
2023/02/04 01:12:26;;;;;;;9.20;5.77;;;;;20.20;102007.00;;;;2104048;28;20226;-53
2023/02/04 01:13:26;;;;;;;10.50;5.22;;;;;20.20;102014.00;;;;2103832;28;20235;-52
2023/02/04 01:14:26;;;;;;;10.60;5.80;;;;;20.20;102013.00;;;;2102798;28;20216;-58
2023/02/04 01:15:27;;;;;;;12.77;5.50;;;;;20.20;102018.00;;;;2103666;28;20215;-56
2023/02/04 01:16:27;;;;;;;9.50;4.90;;;;;20.20;102020.00;;;;2094569;28;20330;-55
2023/02/04 01:17:27;;;;;;;9.30;5.40;;;;;20.20;102023.00;;;;2094662;28;20211;-51
2023/02/04 01:18:28;;;;;;;15.17;5.70;;;;;20.20;102021.00;;;;2102618;28;20218;-52
2023/02/04 01:19:28;;;;;;;10.30;4.80;;;;;20.20;102023.00;;;;2103446;28;20286;-52
2023/02/04 01:20:28;;;;;;;7.33;4.63;;;;;20.20;102029.00;;;;2103355;28;20212;-53
2023/02/04 01:21:29;;;;;;;9.80;5.53;;;;;20.20;102028.00;;;;2103578;28;20208;-53
2023/02/04 01:22:29;;;;;;;8.57;4.73;;;;;20.20;102031.00;;;;2102908;28;20231;-55
2023/02/04 01:23:29;;;;;;;9.27;4.50;;;;;20.20;102032.00;;;;2103581;28;20273;-54
2023/02/04 01:24:30;;;;;;;8.40;4.93;;;;;20.20;102033.00;;;;2103634;28;20295;-54
2023/02/04 01:25:30;;;;;;;8.47;5.80;;;;;20.10;102038.00;;;;2103509;28;20683;-52
2023/02/04 01:26:30;;;;;;;11.23;4.80;;;;;20.20;102029.00;;;;2103233;28;20284;-51
2023/02/04 01:27:31;;;;;;;10.30;4.77;;;;;20.20;102034.00;;;;2103563;28;20264;-52
2023/02/04 01:28:31;;;;;;;8.23;4.23;;;;;20.20;102035.00;;;;2102539;28;20470;-52
2023/02/04 01:29:31;;;;;;;10.53;5.63;;;;;20.20;102035.00;;;;2103358;28;20235;-52
2023/02/04 01:30:32;;;;;;;9.73;4.83;;;;;20.20;102035.00;;;;2103400;28;20350;-51
2023/02/04 01:31:32;;;;;;;10.73;5.50;;;;;20.20;102044.00;;;;2103306;28;20211;-51
2023/02/04 01:32:33;;;;;;;7.67;4.50;;;;;20.20;102045.00;;;;2103273;28;20208;-50
2023/02/04 01:33:33;;;;;;;9.10;5.00;;;;;20.10;102043.00;;;;2103621;28;20817;-51
2023/02/04 01:34:33;;;;;;;10.00;4.83;;;;;20.10;102051.00;;;;2103101;28;20215;-53
2023/02/04 01:35:34;;;;;;;7.80;4.23;;;;;20.10;102045.00;;;;2103315;28;20988;-52
2023/02/04 01:36:34;;;;;;;9.80;4.83;;;;;20.20;102042.00;;;;2103234;28;20577;-52
2023/02/04 01:37:34;;;;;;;8.97;4.70;;;;;20.10;102043.00;;;;2103349;28;20840;-51
2023/02/04 01:38:35;;;;;;;9.33;4.47;;;;;20.10;102053.00;;;;2102510;28;20645;-51
2023/02/04 01:39:35;;;;;;;7.67;4.43;;;;;20.10;102049.00;;;;2102904;28;20218;-51
2023/02/04 01:40:36;;;;;;;7.97;4.03;;;;;20.10;102045.00;;;;2103912;28;20207;-52
2023/02/04 01:41:36;;;;;;;7.30;3.97;;;;;20.10;102051.00;;;;2094969;28;20208;-52
2023/02/04 01:42:36;;;;;;;7.30;4.23;;;;;20.10;102061.00;;;;2086222;28;20223;-54
2023/02/04 01:43:37;;;;;;;8.37;4.23;;;;;20.10;102059.00;;;;2095053;28;20208;-54
2023/02/04 01:44:38;;;;;;;7.70;4.00;;;;;20.10;102048.00;;;;2103878;28;20971;-51
2023/02/04 01:45:38;;;;;;;9.50;4.20;;;;;20.10;102058.00;;;;2104041;28;20207;-53
2023/02/04 01:46:39;;;;;;;8.93;3.67;;;;;20.10;102050.00;;;;2103897;28;21027;-53
2023/02/04 01:47:39;;;;;;;7.03;4.20;;;;;20.10;102046.00;;;;2103812;28;20231;-53
2023/02/04 01:48:39;;;;;;;8.67;4.10;;;;;20.10;102052.00;;;;2093916;28;20204;-51
2023/02/04 01:49:40;;;;;;;10.23;5.20;;;;;20.10;102043.00;;;;2086351;28;20209;-52
2023/02/04 01:50:40;;;;;;;7.40;4.13;;;;;20.10;102046.00;;;;2094534;28;20584;-52
2023/02/04 01:51:40;;;;;;;7.27;3.60;;;;;20.10;102057.00;;;;2093912;28;20593;-52
2023/02/04 01:52:41;;;;;;;8.13;4.70;;;;;20.10;102056.00;;;;2094779;28;20664;-52
2023/02/04 01:53:41;;;;;;;8.20;4.10;;;;;20.10;102059.00;;;;2086090;28;20259;-53
2023/02/04 01:54:41;;;;;;;8.97;4.20;;;;;20.00;102018.00;;;;2086790;28;20315;-52
2023/02/04 01:55:42;;;;;;;12.47;3.90;;;;;20.00;102054.00;;;;2094995;28;21350;-51
2023/02/04 01:56:44;;;;;;;10.70;4.50;;;;;20.00;102050.00;;;;2103915;28;20215;-51
2023/02/04 01:57:45;;;;;;;6.80;4.30;;;;;20.00;102054.00;;;;2103801;28;20572;-52
2023/02/04 01:58:45;;;;;;;7.00;4.03;;;;;20.10;102061.00;;;;2102490;28;20235;-52
2023/02/04 01:59:46;;;;;;;7.83;3.90;;;;;20.00;102065.00;;;;2103906;28;20215;-50
2023/02/04 02:00:46;;;;;;;9.00;3.83;;;;;20.00;102058.00;;;;2102700;28;20640;-52
2023/02/04 02:01:49;;;;;;;9.50;4.13;;;;;20.00;102072.00;;;;2103028;28;20291;-53
2023/02/04 02:02:50;;;;;;;9.52;3.70;;;;;20.00;102069.00;;;;2103561;28;20211;-52
2023/02/04 02:03:50;;;;;;;7.93;4.18;;;;;20.10;102060.00;;;;2103196;28;20215;-53
2023/02/04 02:04:51;;;;;;;6.47;3.43;;;;;20.00;102065.00;;;;2103704;28;20295;-52
2023/02/04 02:05:52;;;;;;;6.77;3.90;;;;;20.00;102065.00;;;;2103645;28;20705;-53
2023/02/04 02:06:54;;;;;;;9.75;4.75;;;;;20.00;102069.00;;;;2094866;28;20212;-50
2023/02/04 02:07:55;;;;;;;7.32;4.20;;;;;19.80;102061.00;;;;2086526;28;22288;-50
2023/02/04 02:08:57;;;;;;;10.77;4.35;;;;;20.00;102064.00;;;;2086321;28;20300;-52
2023/02/04 02:09:57;;;;;;;7.60;4.57;;;;;20.00;102065.00;;;;2086469;28;20235;-51
2023/02/04 02:10:57;;;;;;;9.13;3.80;;;;;20.00;102069.00;;;;2094672;28;20212;-53
2023/02/04 02:11:58;;;;;;;9.77;4.00;;;;;20.00;102062.00;;;;2103763;28;20222;-53
2023/02/04 02:12:58;;;;;;;11.53;4.20;;;;;20.00;102067.00;;;;2094947;28;20231;-53
2023/02/04 02:13:59;;;;;;;9.63;3.97;;;;;20.00;102064.00;;;;2094813;28;20212;-52
2023/02/04 02:14:59;;;;;;;6.03;3.50;;;;;20.00;102065.00;;;;2103770;28;20219;-52
2023/02/04 02:15:59;;;;;;;7.90;4.03;;;;;20.00;102068.00;;;;2094638;28;20208;-52
2023/02/04 02:17:00;;;;;;;6.10;3.40;;;;;20.00;102067.00;;;;2086477;28;20208;-53
2023/02/04 02:18:00;;;;;;;7.30;3.97;;;;;20.00;102065.00;;;;2092662;28;20255;-53
2023/02/04 02:19:00;;;;;;;7.70;3.70;;;;;20.00;102061.00;;;;2103637;28;20207;-53
2023/02/04 02:20:01;;;;;;;5.70;3.40;;;;;20.00;102068.00;;;;2103564;28;20211;-53
2023/02/04 02:21:04;;;;;;;6.83;3.37;;;;;20.00;102067.00;;;;2094778;28;20211;-56
2023/02/04 02:22:09;;;;;;;7.13;3.42;;;;;20.00;102059.00;;;;2094638;28;20370;-51
2023/02/04 02:23:15;;;;;;;7.82;3.65;;;;;20.00;102072.00;;;;2068377;28;20214;-53
2023/02/04 02:24:27;;;;;;;8.25;3.90;;;;;20.00;102076.00;;;;2071828;28;20607;-52
2023/02/04 02:25:27;;;;;;;9.50;3.60;;;;;19.90;102071.00;;;;2081548;28;20225;-53
2023/02/04 02:26:28;;;;;;;9.67;3.80;;;;;20.00;102076.00;;;;2095043;28;20224;-51
2023/02/04 02:27:28;;;;;;;6.90;3.50;;;;;20.00;102075.00;;;;2094724;28;20282;-53
2023/02/04 02:28:28;;;;;;;9.50;3.63;;;;;20.00;102076.00;;;;2093843;28;20222;-53
2023/02/04 02:29:29;;;;;;;6.10;3.47;;;;;20.00;102079.00;;;;2094374;28;20212;-52
2023/02/04 02:30:29;;;;;;;6.40;3.50;;;;;20.00;102076.00;;;;2094573;28;20239;-52
2023/02/04 02:31:29;;;;;;;7.53;3.27;;;;;20.00;102076.00;;;;2103324;28;20299;-52
2023/02/04 02:32:30;;;;;;;7.10;3.30;;;;;20.00;102081.00;;;;2090403;28;20810;-52
2023/02/04 02:33:30;;;;;;;8.17;3.57;;;;;20.00;102078.00;;;;2077845;28;20209;-51
2023/02/04 02:34:30;;;;;;;8.07;3.80;;;;;20.00;102077.00;;;;2072595;28;20209;-52
2023/02/04 02:35:31;;;;;;;7.90;3.77;;;;;20.00;102083.00;;;;2093715;28;20219;-53
2023/02/04 02:36:31;;;;;;;9.00;3.43;;;;;19.90;102089.00;;;;2086598;28;20224;-53
2023/02/04 02:37:32;;;;;;;8.23;3.40;;;;;20.00;102087.00;;;;2078001;28;20472;-51
2023/02/04 02:38:33;;;;;;;9.45;3.92;;;;;20.00;102089.00;;;;2077233;28;20217;-52
2023/02/04 02:39:34;;;;;;;7.17;3.50;;;;;20.00;102090.00;;;;2077842;28;20222;-52
2023/02/04 02:40:34;;;;;;;6.87;3.60;;;;;19.90;102099.00;;;;2086380;28;20280;-51
2023/02/04 02:41:34;;;;;;;8.67;3.53;;;;;20.00;102094.00;;;;2085911;28;20482;-52
2023/02/04 02:42:35;;;;;;;7.57;3.27;;;;;20.00;102085.00;;;;2094642;28;20224;-51
2023/02/04 02:43:35;;;;;;;7.20;3.50;;;;;20.00;102089.00;;;;2094430;28;20269;-53
2023/02/04 02:44:36;;;;;;;8.17;3.67;;;;;19.90;102085.00;;;;2094510;28;20305;-53
2023/02/04 02:45:36;;;;;;;8.23;3.07;;;;;19.90;102092.00;;;;2094437;28;20247;-53
2023/02/04 02:46:36;;;;;;;7.27;3.33;;;;;19.90;102093.00;;;;2086240;28;20213;-51
2023/02/04 02:47:37;;;;;;;9.60;3.60;;;;;19.90;102094.00;;;;2094290;28;20216;-51
2023/02/04 02:48:37;;;;;;;6.87;3.27;;;;;19.90;102097.00;;;;2102398;28;20222;-52
2023/02/04 02:49:39;;;;;;;7.40;3.93;;;;;19.90;102092.00;;;;2102686;28;20235;-52
2023/02/04 02:50:40;;;;;;;8.23;3.50;;;;;19.90;102102.00;;;;2086348;28;20366;-53
2023/02/04 02:51:40;;;;;;;7.80;3.40;;;;;19.90;102102.00;;;;2069924;28;20763;-53
2023/02/04 02:52:41;;;;;;;6.80;3.10;;;;;19.90;102103.00;;;;2086117;28;20213;-53
2023/02/04 02:53:47;;;;;;;6.43;3.37;;;;;19.90;102099.00;;;;2103235;28;20445;-55
2023/02/04 02:54:48;;;;;;;6.78;3.20;;;;;19.90;102102.00;;;;2094581;28;20204;-52
2023/02/04 02:55:48;;;;;;;6.83;3.27;;;;;19.90;102097.00;;;;2094422;28;20287;-53
2023/02/04 02:56:48;;;;;;;6.10;3.57;;;;;19.90;102095.00;;;;2103461;28;20200;-53
2023/02/04 02:57:49;;;;;;;7.07;3.00;;;;;19.90;102099.00;;;;2103129;28;20200;-51
2023/02/04 02:58:49;;;;;;;7.83;3.67;;;;;19.90;102103.00;;;;2093597;28;20204;-53
2023/02/04 02:59:50;;;;;;;7.70;3.30;;;;;19.90;102100.00;;;;2092864;28;20231;-52
2023/02/04 03:00:50;;;;;;;6.77;3.33;;;;;19.90;102103.00;;;;2094542;28;20296;-53
2023/02/04 03:01:54;;;;;;;8.77;3.80;;;;;19.90;102105.00;;;;2101995;28;20215;-53
2023/02/04 03:03:03;;;;;;;7.78;3.53;;;;;19.90;102095.00;;;;2094372;28;20215;-53
2023/02/04 03:04:04;;;;;;;10.40;3.50;;;;;19.90;102095.00;;;;2087276;28;20213;-52
2023/02/04 03:05:04;;;;;;;8.07;3.10;;;;;19.90;102095.00;;;;2094989;28;20239;-53
2023/02/04 03:06:15;;;;;;;6.80;3.30;;;;;19.90;102087.00;;;;2086116;28;20216;-53
2023/02/04 03:07:17;;;;;;;9.13;3.25;;;;;19.90;102102.00;;;;2072245;28;20299;-52
2023/02/04 03:08:17;;;;;;;8.80;3.10;;;;;19.90;102099.00;;;;2085120;28;21033;-53
2023/02/04 03:09:17;;;;;;;7.63;3.07;;;;;19.90;102098.00;;;;2103206;28;20212;-51
2023/02/04 03:10:18;;;;;;;7.53;3.30;;;;;19.90;102091.00;;;;2093800;28;20220;-50
2023/02/04 03:11:18;;;;;;;9.77;3.60;;;;;19.90;102089.00;;;;2085933;28;20221;-52
2023/02/04 03:12:18;;;;;;;10.83;3.97;;;;;19.90;102102.00;;;;2093753;28;20216;-53
2023/02/04 03:13:19;;;;;;;6.33;2.70;;;;;19.90;102098.00;;;;2088104;28;20590;-52
2023/02/04 03:14:19;;;;;;;8.00;3.33;;;;;19.90;102099.00;;;;2084783;28;20696;-52
2023/02/04 03:15:19;;;;;;;6.97;2.93;;;;;19.90;102098.00;;;;2090642;28;20580;-53
2023/02/04 03:16:20;;;;;;;8.00;2.73;;;;;19.90;102101.00;;;;2094160;28;20211;-53
2023/02/04 03:17:21;;;;;;;8.93;3.00;;;;;19.90;102108.00;;;;2094402;28;20212;-51
2023/02/04 03:18:21;;;;;;;6.78;2.72;;;;;19.90;102103.00;;;;2093036;28;20274;-53
2023/02/04 03:19:25;;;;;;;6.13;3.10;;;;;19.80;102104.00;;;;2086052;28;20607;-53
2023/02/04 03:20:26;;;;;;;9.27;3.53;;;;;19.80;102111.00;;;;2086272;28;20213;-51
2023/02/04 03:21:26;;;;;;;19.00;4.10;;;;;19.80;102107.00;;;;2085758;28;20211;-51
2023/02/04 03:22:27;;;;;;;12.33;3.40;;;;;19.90;102112.00;;;;2085792;28;20239;-52
2023/02/04 03:23:27;;;;;;;7.00;3.13;;;;;19.90;102118.00;;;;2103369;28;20227;-53
2023/02/04 03:24:27;;;;;;;18.50;3.50;;;;;19.90;102115.00;;;;2103329;28;20218;-53
2023/02/04 03:25:28;;;;;;;6.70;3.10;;;;;19.90;102111.00;;;;2103153;28;20207;-52
2023/02/04 03:26:28;;;;;;;16.03;3.00;;;;;19.90;102106.00;;;;2093915;28;20211;-53
2023/02/04 03:27:28;;;;;;;8.43;2.80;;;;;19.90;102106.00;;;;2085741;28;20280;-53
2023/02/04 03:28:30;;;;;;;10.13;3.47;;;;;20.00;102114.00;;;;2075306;28;20267;-50
2023/02/04 03:29:30;;;;;;;6.25;2.85;;;;;19.90;102116.00;;;;2085374;28;20251;-52
2023/02/04 03:30:30;;;;;;;8.83;3.00;;;;;19.90;102113.00;;;;2102484;28;20224;-52
2023/02/04 03:31:31;;;;;;;7.53;2.80;;;;;19.90;102117.00;;;;2102871;28;20231;-50
2023/02/04 03:32:31;;;;;;;7.77;3.03;;;;;19.90;102115.00;;;;2102571;28;20219;-50
2023/02/04 03:33:32;;;;;;;5.53;2.80;;;;;19.90;102112.00;;;;2094023;28;20258;-52
2023/02/04 03:34:33;;;;;;;7.10;3.10;;;;;19.80;102122.00;;;;2094146;28;21023;-53
2023/02/04 03:35:33;;;;;;;9.30;2.60;;;;;19.90;102119.00;;;;2103279;28;20223;-50
2023/02/04 03:36:33;;;;;;;6.80;3.03;;;;;19.90;102125.00;;;;2102782;28;20218;-52
2023/02/04 03:37:34;;;;;;;8.50;2.90;;;;;19.90;102119.00;;;;2102903;28;20247;-50
2023/02/04 03:38:34;;;;;;;10.87;3.43;;;;;19.90;102115.00;;;;2102136;28;20218;-51
2023/02/04 03:39:34;;;;;;;7.80;3.67;;;;;19.80;102111.00;;;;2103024;28;20214;-51
2023/02/04 03:40:35;;;;;;;12.43;3.13;;;;;19.80;102120.00;;;;2103151;28;20212;-52
2023/02/04 03:41:35;;;;;;;11.30;3.60;;;;;19.70;102114.00;;;;2103078;28;20208;-52
2023/02/04 03:42:35;;;;;;;8.13;3.07;;;;;19.80;102118.00;;;;2102469;28;20207;-53
2023/02/04 03:43:36;;;;;;;11.53;3.67;;;;;19.70;102117.00;;;;2103047;28;20215;-52
2023/02/04 03:44:36;;;;;;;10.67;3.80;;;;;19.70;102120.00;;;;2102893;28;20208;-52
2023/02/04 03:45:36;;;;;;;7.80;3.27;;;;;19.70;102128.00;;;;2103217;28;20215;-53
2023/02/04 03:46:37;;;;;;;9.20;3.03;;;;;19.60;102118.00;;;;2103047;28;20219;-53
2023/02/04 03:47:37;;;;;;;8.67;3.33;;;;;19.70;102120.00;;;;2102830;28;20269;-52
2023/02/04 03:48:37;;;;;;;9.57;3.60;;;;;19.70;102127.00;;;;2101810;28;20211;-52
2023/02/04 03:49:38;;;;;;;9.87;3.30;;;;;19.60;102132.00;;;;2102749;28;20237;-52
2023/02/04 03:50:38;;;;;;;8.43;3.40;;;;;19.60;102132.00;;;;2102988;28;20234;-51
2023/02/04 03:51:38;;;;;;;8.80;3.90;;;;;19.70;102129.00;;;;2102815;28;20227;-52
2023/02/04 03:52:39;;;;;;;9.30;3.00;;;;;19.60;102134.00;;;;2101663;28;20216;-52
2023/02/04 03:53:39;;;;;;;11.70;3.40;;;;;19.60;102131.00;;;;2102329;28;20207;-51
2023/02/04 03:54:39;;;;;;;12.30;3.33;;;;;19.60;102137.00;;;;2101054;28;20590;-52
2023/02/04 03:55:40;;;;;;;10.60;4.10;;;;;19.60;102131.00;;;;2102869;28;25354;-52
2023/02/04 03:56:40;;;;;;;7.40;2.93;;;;;19.60;102140.00;;;;2102907;28;20219;-53
2023/02/04 03:57:40;;;;;;;9.77;3.40;;;;;19.60;102140.00;;;;2100495;28;20222;-50
2023/02/04 03:58:41;;;;;;;8.30;3.10;;;;;19.60;102132.00;;;;2102073;28;20250;-52
2023/02/04 03:59:41;;;;;;;8.47;3.80;;;;;19.60;102137.00;;;;2102809;28;20756;-53
2023/02/04 04:00:41;;;;;;;10.60;3.40;;;;;19.60;102131.00;;;;2102466;28;21046;-53
2023/02/04 04:01:42;;;;;;;7.53;2.83;;;;;19.60;102133.00;;;;2102792;28;20250;-53
2023/02/04 04:02:42;;;;;;;13.70;3.63;;;;;19.60;102129.00;;;;2102679;28;20212;-53
2023/02/04 04:03:42;;;;;;;9.33;3.27;;;;;19.60;102122.00;;;;2094299;28;20289;-52
2023/02/04 04:04:43;;;;;;;11.67;3.87;;;;;19.60;102132.00;;;;2093856;28;20216;-50
2023/02/04 04:05:43;;;;;;;9.57;2.60;;;;;19.60;102128.00;;;;2094068;28;20235;-52
2023/02/04 04:06:43;;;;;;;13.50;3.90;;;;;19.50;102131.00;;;;2094184;28;20307;-52
2023/02/04 04:07:44;;;;;;;12.03;3.70;;;;;19.50;102126.00;;;;2093745;28;20216;-53
2023/02/04 04:08:44;;;;;;;11.73;5.50;;;;;19.50;102126.00;;;;2094194;28;20212;-50
2023/02/04 04:09:45;;;;;;;14.43;6.40;;;;;19.50;102127.00;;;;2094520;28;20278;-52
2023/02/04 04:10:45;;;;;;;12.30;8.47;;;;;19.50;102127.00;;;;2094119;28;20224;-50
2023/02/04 04:11:45;;;;;;;15.37;9.53;;;;;19.50;102127.00;;;;2094343;28;20220;-50
2023/02/04 04:12:46;;;;;;;23.87;15.20;;;;;19.50;102126.00;;;;2094480;28;20223;-52
2023/02/04 04:13:46;;;;;;;32.43;19.67;;;;;19.50;102131.00;;;;2094178;28;20212;-53
2023/02/04 04:14:46;;;;;;;33.27;23.70;;;;;19.50;102135.00;;;;2095058;28;20247;-52
2023/02/04 04:15:46;;;;;;;32.57;23.23;;;;;19.50;102135.00;;;;2096004;28;20216;-52
2023/02/04 04:16:47;;;;;;;38.30;24.80;;;;;19.50;102128.00;;;;2096050;28;20273;-53
2023/02/04 04:17:47;;;;;;;44.10;29.10;;;;;19.50;102134.00;;;;2096109;28;20219;-53
2023/02/04 04:18:47;;;;;;;46.80;32.27;;;;;19.50;102134.00;;;;2095603;28;20219;-51
2023/02/04 04:19:48;;;;;;;49.83;35.27;;;;;19.50;102137.00;;;;2095158;28;20215;-51
2023/02/04 04:20:48;;;;;;;49.43;34.77;;;;;19.50;102136.00;;;;2095712;28;20215;-53
2023/02/04 04:21:49;;;;;;;60.40;38.80;;;;;19.50;102145.00;;;;2096126;28;20983;-53
2023/02/04 04:22:49;;;;;;;56.77;36.50;;;;;19.50;102150.00;;;;2095955;28;20635;-53
2023/02/04 04:23:50;;;;;;;55.20;36.90;;;;;19.40;102152.00;;;;2096168;28;20212;-52
2023/02/04 04:24:50;;;;;;;61.33;39.90;;;;;19.50;102162.00;;;;2096108;28;20227;-52
2023/02/04 04:25:50;;;;;;;56.57;38.33;;;;;19.50;102159.00;;;;2095742;28;20569;-52
2023/02/04 04:26:51;;;;;;;59.90;39.27;;;;;19.50;102158.00;;;;2096050;28;20277;-51
2023/02/04 04:27:51;;;;;;;58.77;37.90;;;;;19.50;102163.00;;;;2095433;28;20219;-52
2023/02/04 04:28:51;;;;;;;60.30;38.13;;;;;19.40;102166.00;;;;2095611;28;20235;-53
2023/02/04 04:29:52;;;;;;;51.70;36.00;;;;;19.40;102158.00;;;;2096001;28;20215;-53
2023/02/04 04:30:52;;;;;;;53.60;34.90;;;;;19.40;102167.00;;;;2095540;28;21150;-53
2023/02/04 04:31:52;;;;;;;53.63;36.27;;;;;19.40;102166.00;;;;2095897;28;20679;-51
2023/02/04 04:32:53;;;;;;;58.97;36.80;;;;;19.40;102174.00;;;;2095660;28;20220;-53
2023/02/04 04:33:53;;;;;;;50.17;34.60;;;;;19.40;102177.00;;;;2095514;28;20305;-51
2023/02/04 04:34:53;;;;;;;53.03;34.93;;;;;19.40;102183.00;;;;2095582;28;20208;-52
2023/02/04 04:35:54;;;;;;;56.60;34.33;;;;;19.40;102180.00;;;;2096095;28;20227;-51
2023/02/04 04:36:54;;;;;;;54.70;35.93;;;;;19.40;102180.00;;;;2096026;28;20216;-51
2023/02/04 04:37:54;;;;;;;57.60;35.80;;;;;19.40;102180.00;;;;2094332;28;20209;-53
2023/02/04 04:38:55;;;;;;;58.43;35.80;;;;;19.40;102149.00;;;;2095608;28;20270;-50
2023/02/04 04:39:55;;;;;;;54.00;36.93;;;;;19.40;102179.00;;;;2095662;28;20291;-51
2023/02/04 04:40:55;;;;;;;63.33;39.63;;;;;19.40;102173.00;;;;2095886;28;20605;-52
2023/02/04 04:41:56;;;;;;;63.40;41.07;;;;;19.40;102163.00;;;;2095691;28;20220;-52
2023/02/04 04:42:56;;;;;;;57.57;39.10;;;;;19.40;102175.00;;;;2095449;28;20211;-52
2023/02/04 04:43:56;;;;;;;60.30;41.00;;;;;19.40;102163.00;;;;2095391;28;20746;-53
2023/02/04 04:44:57;;;;;;;64.93;43.47;;;;;19.40;102172.00;;;;2093604;28;20715;-51
2023/02/04 04:45:57;;;;;;;66.73;45.07;;;;;19.40;102166.00;;;;2095085;28;20680;-52
2023/02/04 04:46:57;;;;;;;69.40;45.23;;;;;19.40;102170.00;;;;2095407;28;20212;-52
2023/02/04 04:47:58;;;;;;;70.43;47.43;;;;;19.40;102178.00;;;;2094776;28;20243;-52
2023/02/04 04:48:58;;;;;;;82.17;50.00;;;;;19.40;102166.00;;;;2094728;28;20289;-57
2023/02/04 04:49:58;;;;;;;69.53;46.67;;;;;19.30;102171.00;;;;2094658;28;20216;-56
2023/02/04 04:50:59;;;;;;;75.33;46.50;;;;;19.40;102176.00;;;;2095140;28;20737;-51
2023/02/04 04:51:59;;;;;;;85.10;49.17;;;;;19.30;102171.00;;;;2095179;28;20220;-52
2023/02/04 04:52:59;;;;;;;78.93;48.77;;;;;19.40;102181.00;;;;2095675;28;20261;-50
2023/02/04 04:54:00;;;;;;;71.50;45.37;;;;;19.40;102179.00;;;;2095196;28;20212;-52
2023/02/04 04:55:00;;;;;;;76.77;47.03;;;;;19.40;102175.00;;;;2095363;28;20227;-52
2023/02/04 04:56:00;;;;;;;69.63;45.47;;;;;19.40;102180.00;;;;2094970;28;20208;-51
2023/02/04 04:57:01;;;;;;;73.53;44.93;;;;;19.30;102179.00;;;;2096485;28;20297;-53